createdAt,value
2022-09-25T07:23:31.521Z,9.60
2022-09-25T07:26:11.547Z,9.33
2022-09-25T07:28:48.418Z,9.47
2022-09-25T07:31:27.924Z,12.77
2022-09-25T07:34:09.721Z,15.13
2022-09-25T07:36:47.962Z,10.55
2022-09-25T07:39:27.424Z,9.10
2022-09-25T07:42:04.617Z,9.30
2022-09-25T07:44:46.049Z,9.47
2022-09-25T07:47:25.339Z,9.97
2022-09-25T07:50:03.271Z,9.90
2022-09-25T07:52:41.629Z,9.67
2022-09-25T07:55:21.641Z,9.63
2022-09-25T07:58:01.424Z,9.63
2022-09-25T08:00:38.323Z,10.50
2022-09-25T08:03:17.028Z,8.93
2022-09-25T08:06:02.410Z,9.10
2022-09-25T08:08:41.791Z,7.67
2022-09-25T08:11:23.709Z,8.57
2022-09-25T08:14:01.178Z,7.60
2022-09-25T08:16:38.226Z,7.93
2022-09-25T08:19:18.125Z,8.73
2022-09-25T08:21:54.833Z,7.40
2022-09-25T08:24:32.822Z,7.60
2022-09-25T08:27:12.419Z,6.90
2022-09-25T08:29:49.799Z,6.80
2022-09-25T08:32:26.510Z,7.20
2022-09-25T08:35:04.074Z,6.03
2022-09-25T08:37:45.632Z,6.17
2022-09-25T08:40:31.182Z,6.67
2022-09-25T08:43:13.334Z,6.20
2022-09-25T08:46:04.423Z,6.35
2022-09-25T08:49:10.256Z,6.20
2022-09-25T08:51:53.142Z,7.07
2022-09-25T08:54:32.937Z,6.80
2022-09-25T08:57:31.751Z,6.68
2022-09-25T09:00:21.988Z,6.47
2022-09-25T09:03:02.712Z,6.70
2022-09-25T09:05:50.891Z,5.93
2022-09-25T09:08:32.535Z,6.25
2022-09-25T09:11:15.601Z,6.53
2022-09-25T09:13:56.483Z,6.03
2022-09-25T09:16:44.563Z,6.70
2022-09-25T09:19:21.822Z,6.72
2022-09-25T09:22:12.896Z,6.57
2022-09-25T09:25:05.131Z,6.10
2022-09-25T09:28:05.440Z,6.63
2022-09-25T09:30:52.244Z,6.63
2022-09-25T09:33:55.464Z,6.90
2022-09-25T09:36:48.334Z,7.85
2022-09-25T09:39:33.744Z,8.15
2022-09-25T09:42:21.035Z,8.32
2022-09-25T09:45:09.472Z,9.13
2022-09-25T09:47:52.749Z,9.25
2022-09-25T09:50:49.825Z,9.25
2022-09-25T09:53:37.327Z,10.20
2022-09-25T09:56:18.613Z,10.48
2022-09-25T09:59:00.508Z,9.52
2022-09-25T10:01:45.589Z,9.23
2022-09-25T10:04:29.656Z,9.88
2022-09-25T10:07:18.756Z,9.57
2022-09-25T10:09:58.973Z,8.80
2022-09-25T10:12:40.778Z,9.10
2022-09-25T10:15:29.740Z,9.05
2022-09-25T10:18:09.565Z,8.35
2022-09-25T10:20:53.322Z,9.13
2022-09-25T10:23:43.189Z,9.00
2022-09-25T10:26:33.538Z,9.18
2022-09-25T10:29:31.070Z,8.88
2022-09-25T10:32:09.391Z,8.68
2022-09-25T10:34:55.561Z,8.18
2022-09-25T10:37:37.992Z,9.00
2022-09-25T10:40:32.613Z,9.88
2022-09-25T10:43:21.019Z,9.02
2022-09-25T10:46:37.151Z,9.10
2022-09-25T10:49:33.923Z,8.52
2022-09-25T10:52:18.494Z,7.72
2022-09-25T10:55:16.509Z,7.93
2022-09-25T10:58:10.109Z,8.48
2022-09-25T11:01:01.215Z,8.48
2022-09-25T11:03:42.398Z,7.22
2022-09-25T11:06:27.907Z,7.60
2022-09-25T11:09:20.099Z,6.70
2022-09-25T11:12:10.078Z,6.88
2022-09-25T11:14:58.906Z,6.55
2022-09-25T11:17:47.101Z,6.13
2022-09-25T11:20:30.937Z,6.10
2022-09-25T11:23:32.766Z,6.10
2022-09-25T11:26:15.994Z,6.60
2022-09-25T11:29:01.600Z,6.40
2022-09-25T11:31:46.252Z,6.38
2022-09-25T11:34:46.187Z,6.13
2022-09-25T11:37:30.212Z,5.78
2022-09-25T11:40:39.948Z,4.13
2022-09-25T11:43:35.634Z,4.00
2022-09-25T11:46:27.183Z,3.38
2022-09-25T11:49:18.596Z,3.55
2022-09-25T11:52:48.144Z,3.58
2022-09-25T11:55:56.554Z,4.15
2022-09-25T11:58:57.725Z,3.80
2022-09-25T12:01:42.065Z,4.30
2022-09-25T12:05:00.735Z,3.95
2022-09-25T12:08:06.125Z,3.63
2022-09-25T12:10:58.636Z,5.13
2022-09-25T12:13:49.891Z,4.22
2022-09-25T12:16:41.220Z,4.40
2022-09-25T12:19:39.892Z,5.07
2022-09-25T12:22:29.308Z,4.55
2022-09-25T12:25:16.431Z,5.22
2022-09-25T12:28:01.520Z,5.13
2022-09-25T12:30:48.820Z,5.47
2022-09-25T12:33:35.811Z,4.72
2022-09-25T12:36:23.074Z,4.85
2022-09-25T12:39:28.560Z,5.22
2022-09-25T12:42:17.281Z,5.10
2022-09-25T12:45:00.847Z,5.07
2022-09-25T12:47:46.722Z,4.90
2022-09-25T12:50:32.715Z,5.20
2022-09-25T12:53:33.972Z,4.50
2022-09-25T12:56:19.759Z,4.40
2022-09-25T12:59:07.872Z,5.00
2022-09-25T13:01:56.334Z,4.78
2022-09-25T13:04:52.448Z,5.00
2022-09-25T13:07:38.534Z,5.78
2022-09-25T13:10:30.725Z,4.95
2022-09-25T13:13:17.810Z,5.40
2022-09-25T13:16:02.001Z,5.13
2022-09-25T13:18:42.012Z,6.88
2022-09-25T13:21:40.429Z,6.05
2022-09-25T13:24:22.961Z,6.50
2022-09-25T13:27:07.461Z,6.07
2022-09-25T13:29:45.914Z,6.55
2022-09-25T13:32:29.450Z,5.57
2022-09-25T13:35:26.834Z,5.60
2022-09-25T13:38:42.797Z,5.53
2022-09-25T13:41:24.378Z,5.45
2022-09-25T13:45:07.990Z,5.65
2022-09-25T13:48:07.895Z,6.03
2022-09-25T13:50:52.858Z,6.10
2022-09-25T13:53:53.002Z,6.90
2022-09-25T13:56:49.962Z,6.03
2022-09-25T13:59:43.380Z,8.10
2022-09-25T14:02:46.703Z,5.32
2022-09-25T14:05:32.662Z,4.32
2022-09-25T14:08:14.799Z,4.45
2022-09-25T14:10:56.320Z,4.75
2022-09-25T14:13:40.012Z,5.40
2022-09-25T14:16:28.520Z,5.50
2022-09-25T14:19:08.992Z,5.38
2022-09-25T14:21:51.512Z,4.75
2022-09-25T14:24:32.313Z,4.38
2022-09-25T14:27:28.235Z,4.78
2022-09-25T14:30:15.158Z,4.57
2022-09-25T14:33:23.532Z,4.63
2022-09-25T14:36:13.872Z,4.13
2022-09-25T14:39:17.783Z,4.47
2022-09-25T14:42:29.472Z,4.30
2022-09-25T14:45:39.521Z,4.43
2022-09-25T14:48:21.921Z,5.10
2022-09-25T14:51:03.982Z,5.07
2022-09-25T14:53:47.265Z,5.47
2022-09-25T14:56:34.671Z,5.45
2022-09-25T14:59:15.812Z,6.32
2022-09-25T15:01:56.028Z,5.80
2022-09-25T15:04:36.127Z,6.47
2022-09-25T15:07:21.191Z,7.03
2022-09-25T15:10:01.672Z,7.07
2022-09-25T15:12:49.734Z,6.57
2022-09-25T15:15:29.572Z,5.85
2022-09-25T15:18:05.315Z,6.70
2022-09-25T15:20:50.631Z,5.97
2022-09-25T15:23:30.601Z,6.88
2022-09-25T15:26:20.469Z,7.22
2022-09-25T15:29:04.623Z,6.97
2022-09-25T15:31:47.222Z,7.13
2022-09-25T15:34:28.080Z,6.78
2022-09-25T15:37:26.682Z,7.93
2022-09-25T15:40:29.025Z,7.65
2022-09-25T15:43:06.892Z,7.78
2022-09-25T15:46:22.322Z,7.85
2022-09-25T15:49:03.867Z,7.78
2022-09-25T15:51:41.683Z,6.90
2022-09-25T15:54:36.219Z,8.50
2022-09-25T15:57:19.782Z,7.70
2022-09-25T16:00:12.327Z,7.95
2022-09-25T16:03:14.726Z,8.30
2022-09-25T16:05:55.402Z,8.43
2022-09-25T16:08:36.988Z,7.65
2022-09-25T16:11:25.008Z,7.40
2022-09-25T16:14:29.718Z,8.05
2022-09-25T16:17:18.831Z,7.72
2022-09-25T16:20:31.227Z,7.25
2022-09-25T16:23:22.168Z,8.48
2022-09-25T16:26:00.837Z,8.05
2022-09-25T16:28:40.328Z,8.38
2022-09-25T16:31:17.621Z,10.48
2022-09-25T16:33:58.126Z,13.18
2022-09-25T16:36:48.858Z,12.95
2022-09-25T16:39:32.760Z,8.93
2022-09-25T16:42:36.006Z,7.18
2022-09-25T16:45:24.160Z,7.50
2022-09-25T16:48:32.709Z,8.15
2022-09-25T16:51:14.425Z,8.30
2022-09-25T16:53:55.653Z,8.57
2022-09-25T16:56:35.810Z,8.02
2022-09-25T16:59:22.575Z,8.95
2022-09-25T17:02:04.985Z,9.07
2022-09-25T17:04:45.069Z,10.75
2022-09-25T17:07:22.841Z,10.85
2022-09-25T17:10:03.104Z,10.60
2022-09-25T17:12:40.447Z,10.68
2022-09-25T17:15:31.521Z,10.02
2022-09-25T17:18:20.165Z,10.95
2022-09-25T17:21:00.221Z,11.05
2022-09-25T17:23:39.175Z,10.97
2022-09-25T17:26:24.271Z,11.07
2022-09-25T17:29:01.127Z,11.75
2022-09-25T17:31:39.849Z,10.97
2022-09-25T17:34:24.808Z,10.53
2022-09-25T17:37:02.488Z,11.10
